sensor_id;sensor_type;location;lat;lon;timestamp;P1;durP1;ratioP1;P2;durP2;ratioP2
74620;SDS011;64861;47.546;19.254;2023-01-31T00:00:19;6.75;;;3.67;;
74620;SDS011;64861;47.546;19.254;2023-01-31T00:02:45;6.75;;;3.72;;
74620;SDS011;64861;47.546;19.254;2023-01-31T00:05:10;7.03;;;3.80;;
74620;SDS011;64861;47.546;19.254;2023-01-31T00:07:36;7.47;;;4.10;;
74620;SDS011;64861;47.546;19.254;2023-01-31T00:10:01;7.13;;;3.85;;
74620;SDS011;64861;47.546;19.254;2023-01-31T00:12:27;6.68;;;3.65;;
74620;SDS011;64861;47.546;19.254;2023-01-31T00:14:52;6.50;;;3.63;;
74620;SDS011;64861;47.546;19.254;2023-01-31T00:17:18;6.72;;;3.65;;
74620;SDS011;64861;47.546;19.254;2023-01-31T00:19:43;6.00;;;3.53;;
74620;SDS011;64861;47.546;19.254;2023-01-31T00:22:08;6.97;;;3.53;;
74620;SDS011;64861;47.546;19.254;2023-01-31T00:24:34;7.18;;;3.60;;
74620;SDS011;64861;47.546;19.254;2023-01-31T00:26:59;6.55;;;3.53;;
74620;SDS011;64861;47.546;19.254;2023-01-31T00:29:25;6.70;;;3.28;;
74620;SDS011;64861;47.546;19.254;2023-01-31T00:31:50;6.22;;;3.47;;
74620;SDS011;64861;47.546;19.254;2023-01-31T00:34:16;6.47;;;3.47;;
74620;SDS011;64861;47.546;19.254;2023-01-31T00:36:42;6.32;;;3.58;;
74620;SDS011;64861;47.546;19.254;2023-01-31T00:39:08;6.95;;;3.80;;
74620;SDS011;64861;47.546;19.254;2023-01-31T00:41:35;6.40;;;3.38;;
74620;SDS011;64861;47.546;19.254;2023-01-31T00:44:01;5.70;;;3.30;;
74620;SDS011;64861;47.546;19.254;2023-01-31T00:46:27;6.78;;;3.35;;
74620;SDS011;64861;47.546;19.254;2023-01-31T00:48:52;6.70;;;3.65;;
74620;SDS011;64861;47.546;19.254;2023-01-31T00:51:19;6.53;;;3.40;;
74620;SDS011;64861;47.546;19.254;2023-01-31T00:53:45;5.72;;;3.10;;
74620;SDS011;64861;47.546;19.254;2023-01-31T00:56:13;6.63;;;3.47;;
74620;SDS011;64861;47.546;19.254;2023-01-31T00:58:41;6.40;;;3.38;;
74620;SDS011;64861;47.546;19.254;2023-01-31T01:01:14;6.30;;;3.05;;
74620;SDS011;64861;47.546;19.254;2023-01-31T01:03:42;5.97;;;3.15;;
74620;SDS011;64861;47.546;19.254;2023-01-31T01:06:09;5.75;;;3.15;;
74620;SDS011;64861;47.546;19.254;2023-01-31T01:08:36;6.10;;;3.20;;
74620;SDS011;64861;47.546;19.254;2023-01-31T01:11:09;6.00;;;3.33;;
74620;SDS011;64861;47.546;19.254;2023-01-31T01:13:37;6.50;;;3.38;;
74620;SDS011;64861;47.546;19.254;2023-01-31T01:16:04;5.85;;;3.15;;
74620;SDS011;64861;47.546;19.254;2023-01-31T01:18:31;7.00;;;3.28;;
74620;SDS011;64861;47.546;19.254;2023-01-31T01:21:08;5.05;;;3.05;;
74620;SDS011;64861;47.546;19.254;2023-01-31T01:23:39;5.45;;;2.78;;
74620;SDS011;64861;47.546;19.254;2023-01-31T01:26:05;5.65;;;3.03;;
74620;SDS011;64861;47.546;19.254;2023-01-31T01:28:43;5.82;;;3.17;;
74620;SDS011;64861;47.546;19.254;2023-01-31T01:31:10;6.15;;;3.35;;
74620;SDS011;64861;47.546;19.254;2023-01-31T01:33:36;6.45;;;3.30;;
74620;SDS011;64861;47.546;19.254;2023-01-31T01:36:06;5.70;;;3.08;;
74620;SDS011;64861;47.546;19.254;2023-01-31T01:38:33;5.90;;;3.20;;
74620;SDS011;64861;47.546;19.254;2023-01-31T01:41:00;5.70;;;3.00;;
74620;SDS011;64861;47.546;19.254;2023-01-31T01:46:10;5.55;;;3.03;;
74620;SDS011;64861;47.546;19.254;2023-01-31T01:48:42;5.60;;;3.08;;
74620;SDS011;64861;47.546;19.254;2023-01-31T01:51:12;5.25;;;2.78;;
74620;SDS011;64861;47.546;19.254;2023-01-31T01:53:40;5.85;;;3.10;;
74620;SDS011;64861;47.546;19.254;2023-01-31T01:56:19;7.40;;;3.17;;
74620;SDS011;64861;47.546;19.254;2023-01-31T01:58:53;5.65;;;2.75;;
74620;SDS011;64861;47.546;19.254;2023-01-31T02:01:24;5.60;;;2.85;;
74620;SDS011;64861;47.546;19.254;2023-01-31T02:03:52;4.90;;;2.65;;
74620;SDS011;64861;47.546;19.254;2023-01-31T02:06:18;6.13;;;3.00;;
74620;SDS011;64861;47.546;19.254;2023-01-31T02:08:45;5.32;;;2.78;;
74620;SDS011;64861;47.546;19.254;2023-01-31T02:13:47;6.07;;;2.95;;
74620;SDS011;64861;47.546;19.254;2023-01-31T02:16:15;4.97;;;2.75;;
74620;SDS011;64861;47.546;19.254;2023-01-31T02:18:41;6.93;;;3.22;;
74620;SDS011;64861;47.546;19.254;2023-01-31T02:24:16;5.30;;;2.75;;
74620;SDS011;64861;47.546;19.254;2023-01-31T02:38:29;5.53;;;2.80;;
74620;SDS011;64861;47.546;19.254;2023-01-31T02:55:20;5.13;;;2.70;;
74620;SDS011;64861;47.546;19.254;2023-01-31T02:58:10;6.15;;;3.10;;
74620;SDS011;64861;47.546;19.254;2023-01-31T03:00:39;5.78;;;2.65;;
74620;SDS011;64861;47.546;19.254;2023-01-31T03:03:11;5.60;;;2.65;;
74620;SDS011;64861;47.546;19.254;2023-01-31T03:08:47;4.75;;;2.30;;
74620;SDS011;64861;47.546;19.254;2023-01-31T03:11:21;5.65;;;2.58;;
74620;SDS011;64861;47.546;19.254;2023-01-31T03:13:58;4.55;;;2.17;;
74620;SDS011;64861;47.546;19.254;2023-01-31T03:16:39;5.65;;;2.78;;
74620;SDS011;64861;47.546;19.254;2023-01-31T03:19:35;5.15;;;2.35;;
74620;SDS011;64861;47.546;19.254;2023-01-31T03:22:10;4.65;;;2.17;;
74620;SDS011;64861;47.546;19.254;2023-01-31T03:24:48;5.40;;;2.90;;
74620;SDS011;64861;47.546;19.254;2023-01-31T03:27:16;5.43;;;2.42;;
74620;SDS011;64861;47.546;19.254;2023-01-31T03:29:43;5.07;;;2.30;;
74620;SDS011;64861;47.546;19.254;2023-01-31T03:32:29;5.03;;;2.50;;
74620;SDS011;64861;47.546;19.254;2023-01-31T03:34:59;4.80;;;2.28;;
74620;SDS011;64861;47.546;19.254;2023-01-31T03:37:49;4.60;;;2.38;;
74620;SDS011;64861;47.546;19.254;2023-01-31T03:40:40;5.13;;;2.50;;
74620;SDS011;64861;47.546;19.254;2023-01-31T03:46:12;5.25;;;2.40;;
74620;SDS011;64861;47.546;19.254;2023-01-31T03:48:42;4.50;;;2.10;;
74620;SDS011;64861;47.546;19.254;2023-01-31T03:51:14;5.22;;;2.33;;
74620;SDS011;64861;47.546;19.254;2023-01-31T03:53:47;5.43;;;2.50;;
74620;SDS011;64861;47.546;19.254;2023-01-31T03:59:03;4.78;;;2.17;;
74620;SDS011;64861;47.546;19.254;2023-01-31T04:01:34;5.78;;;2.33;;
74620;SDS011;64861;47.546;19.254;2023-01-31T04:04:09;6.43;;;2.65;;
74620;SDS011;64861;47.546;19.254;2023-01-31T04:09:04;5.03;;;2.30;;
74620;SDS011;64861;47.546;19.254;2023-01-31T04:11:29;5.80;;;2.42;;
74620;SDS011;64861;47.546;19.254;2023-01-31T04:14:02;4.43;;;2.08;;
74620;SDS011;64861;47.546;19.254;2023-01-31T04:16:27;4.88;;;2.63;;
74620;SDS011;64861;47.546;19.254;2023-01-31T04:18:52;5.68;;;2.22;;
74620;SDS011;64861;47.546;19.254;2023-01-31T04:21:20;4.85;;;2.28;;
74620;SDS011;64861;47.546;19.254;2023-01-31T04:23:46;5.90;;;2.42;;
74620;SDS011;64861;47.546;19.254;2023-01-31T04:26:11;5.38;;;2.10;;
74620;SDS011;64861;47.546;19.254;2023-01-31T04:28:37;4.78;;;2.15;;
74620;SDS011;64861;47.546;19.254;2023-01-31T04:31:02;4.35;;;2.08;;
74620;SDS011;64861;47.546;19.254;2023-01-31T04:33:28;4.95;;;2.20;;
74620;SDS011;64861;47.546;19.254;2023-01-31T04:35:54;5.35;;;2.03;;
74620;SDS011;64861;47.546;19.254;2023-01-31T04:38:19;4.68;;;1.90;;
74620;SDS011;64861;47.546;19.254;2023-01-31T04:40:44;5.40;;;2.30;;
74620;SDS011;64861;47.546;19.254;2023-01-31T04:43:10;5.88;;;2.47;;
74620;SDS011;64861;47.546;19.254;2023-01-31T04:45:36;5.50;;;2.33;;
74620;SDS011;64861;47.546;19.254;2023-01-31T04:48:01;4.93;;;2.03;;
74620;SDS011;64861;47.546;19.254;2023-01-31T04:50:28;5.43;;;2.05;;
74620;SDS011;64861;47.546;19.254;2023-01-31T04:52:54;4.22;;;1.80;;
74620;SDS011;64861;47.546;19.254;2023-01-31T04:55:20;3.67;;;1.85;;
74620;SDS011;64861;47.546;19.254;2023-01-31T04:57:45;4.78;;;2.00;;
74620;SDS011;64861;47.546;19.254;2023-01-31T05:00:11;4.25;;;1.90;;
74620;SDS011;64861;47.546;19.254;2023-01-31T05:02:36;4.50;;;2.13;;
74620;SDS011;64861;47.546;19.254;2023-01-31T05:05:02;4.70;;;1.92;;
74620;SDS011;64861;47.546;19.254;2023-01-31T05:07:29;3.55;;;1.70;;
74620;SDS011;64861;47.546;19.254;2023-01-31T05:09:55;4.90;;;2.00;;
74620;SDS011;64861;47.546;19.254;2023-01-31T05:12:20;4.75;;;2.13;;
74620;SDS011;64861;47.546;19.254;2023-01-31T05:14:46;5.65;;;2.15;;
74620;SDS011;64861;47.546;19.254;2023-01-31T05:17:11;4.43;;;2.10;;
74620;SDS011;64861;47.546;19.254;2023-01-31T05:19:37;4.75;;;2.08;;
74620;SDS011;64861;47.546;19.254;2023-01-31T05:22:02;3.20;;;1.65;;
74620;SDS011;64861;47.546;19.254;2023-01-31T05:24:29;4.07;;;2.03;;
74620;SDS011;64861;47.546;19.254;2023-01-31T05:26:56;4.95;;;2.13;;
74620;SDS011;64861;47.546;19.254;2023-01-31T05:29:26;5.32;;;2.35;;
74620;SDS011;64861;47.546;19.254;2023-01-31T05:31:54;4.72;;;1.95;;
74620;SDS011;64861;47.546;19.254;2023-01-31T05:34:21;4.25;;;1.80;;
74620;SDS011;64861;47.546;19.254;2023-01-31T05:36:49;4.60;;;1.80;;
74620;SDS011;64861;47.546;19.254;2023-01-31T05:39:15;4.03;;;1.77;;
74620;SDS011;64861;47.546;19.254;2023-01-31T05:41:41;4.28;;;2.05;;
74620;SDS011;64861;47.546;19.254;2023-01-31T05:44:06;4.47;;;2.00;;
74620;SDS011;64861;47.546;19.254;2023-01-31T05:46:31;4.10;;;1.80;;
74620;SDS011;64861;47.546;19.254;2023-01-31T05:48:57;4.80;;;2.00;;
74620;SDS011;64861;47.546;19.254;2023-01-31T05:51:22;4.93;;;2.25;;
74620;SDS011;64861;47.546;19.254;2023-01-31T05:53:48;3.75;;;1.83;;
74620;SDS011;64861;47.546;19.254;2023-01-31T05:56:13;4.70;;;2.00;;
74620;SDS011;64861;47.546;19.254;2023-01-31T05:58:40;4.25;;;1.73;;
74620;SDS011;64861;47.546;19.254;2023-01-31T06:01:06;5.68;;;2.22;;
74620;SDS011;64861;47.546;19.254;2023-01-31T06:03:31;4.25;;;2.20;;
74620;SDS011;64861;47.546;19.254;2023-01-31T06:05:57;4.85;;;2.10;;
74620;SDS011;64861;47.546;19.254;2023-01-31T06:08:22;5.05;;;1.90;;
74620;SDS011;64861;47.546;19.254;2023-01-31T06:10:48;3.42;;;1.65;;
74620;SDS011;64861;47.546;19.254;2023-01-31T06:13:13;4.38;;;1.50;;
74620;SDS011;64861;47.546;19.254;2023-01-31T06:15:45;3.60;;;1.55;;
74620;SDS011;64861;47.546;19.254;2023-01-31T06:18:10;4.35;;;1.60;;
74620;SDS011;64861;47.546;19.254;2023-01-31T06:20:37;4.07;;;1.75;;
74620;SDS011;64861;47.546;19.254;2023-01-31T06:23:03;4.15;;;1.58;;
74620;SDS011;64861;47.546;19.254;2023-01-31T06:25:28;3.97;;;1.77;;
74620;SDS011;64861;47.546;19.254;2023-01-31T06:27:55;4.93;;;1.90;;
74620;SDS011;64861;47.546;19.254;2023-01-31T06:30:20;4.85;;;1.88;;
74620;SDS011;64861;47.546;19.254;2023-01-31T06:32:46;3.72;;;1.42;;
74620;SDS011;64861;47.546;19.254;2023-01-31T06:35:11;4.00;;;1.75;;
74620;SDS011;64861;47.546;19.254;2023-01-31T06:37:37;3.40;;;1.60;;
74620;SDS011;64861;47.546;19.254;2023-01-31T06:40:02;4.05;;;1.63;;
74620;SDS011;64861;47.546;19.254;2023-01-31T06:42:28;3.92;;;1.88;;
74620;SDS011;64861;47.546;19.254;2023-01-31T06:44:54;3.55;;;1.60;;
74620;SDS011;64861;47.546;19.254;2023-01-31T06:47:19;3.65;;;1.58;;
74620;SDS011;64861;47.546;19.254;2023-01-31T06:49:44;4.15;;;1.75;;
74620;SDS011;64861;47.546;19.254;2023-01-31T06:52:10;3.83;;;1.70;;
74620;SDS011;64861;47.546;19.254;2023-01-31T06:54:35;3.65;;;1.60;;
74620;SDS011;64861;47.546;19.254;2023-01-31T06:57:01;4.45;;;1.77;;
74620;SDS011;64861;47.546;19.254;2023-01-31T06:59:26;4.43;;;1.90;;
74620;SDS011;64861;47.546;19.254;2023-01-31T07:01:52;3.28;;;1.45;;
74620;SDS011;64861;47.546;19.254;2023-01-31T07:04:17;4.20;;;1.80;;
74620;SDS011;64861;47.546;19.254;2023-01-31T07:06:43;3.13;;;1.52;;
74620;SDS011;64861;47.546;19.254;2023-01-31T07:09:09;3.50;;;1.50;;
74620;SDS011;64861;47.546;19.254;2023-01-31T07:11:36;4.05;;;1.50;;
74620;SDS011;64861;47.546;19.254;2023-01-31T07:14:02;3.10;;;1.50;;
74620;SDS011;64861;47.546;19.254;2023-01-31T07:16:27;4.63;;;1.90;;
74620;SDS011;64861;47.546;19.254;2023-01-31T07:18:53;4.03;;;1.75;;
74620;SDS011;64861;47.546;19.254;2023-01-31T07:21:20;3.28;;;1.60;;
74620;SDS011;64861;47.546;19.254;2023-01-31T07:23:46;3.95;;;1.73;;
74620;SDS011;64861;47.546;19.254;2023-01-31T07:26:12;4.15;;;1.65;;
74620;SDS011;64861;47.546;19.254;2023-01-31T07:28:38;4.68;;;1.70;;
74620;SDS011;64861;47.546;19.254;2023-01-31T07:31:12;5.13;;;1.67;;
74620;SDS011;64861;47.546;19.254;2023-01-31T07:33:39;2.90;;;1.42;;
74620;SDS011;64861;47.546;19.254;2023-01-31T07:36:05;4.15;;;1.65;;
74620;SDS011;64861;47.546;19.254;2023-01-31T07:38:32;6.38;;;1.65;;
74620;SDS011;64861;47.546;19.254;2023-01-31T07:40:58;3.83;;;1.70;;
74620;SDS011;64861;47.546;19.254;2023-01-31T07:43:25;3.38;;;1.40;;
74620;SDS011;64861;47.546;19.254;2023-01-31T07:45:51;3.97;;;1.52;;
74620;SDS011;64861;47.546;19.254;2023-01-31T07:48:17;3.50;;;1.60;;
74620;SDS011;64861;47.546;19.254;2023-01-31T07:50:48;4.43;;;1.63;;
74620;SDS011;64861;47.546;19.254;2023-01-31T07:53:15;4.38;;;1.73;;
74620;SDS011;64861;47.546;19.254;2023-01-31T07:55:40;4.28;;;1.90;;
74620;SDS011;64861;47.546;19.254;2023-01-31T07:58:06;3.80;;;1.40;;
74620;SDS011;64861;47.546;19.254;2023-01-31T08:00:31;4.40;;;1.55;;
74620;SDS011;64861;47.546;19.254;2023-01-31T08:03:22;4.40;;;1.70;;
74620;SDS011;64861;47.546;19.254;2023-01-31T08:05:59;3.97;;;1.55;;
74620;SDS011;64861;47.546;19.254;2023-01-31T08:08:25;4.38;;;1.65;;
74620;SDS011;64861;47.546;19.254;2023-01-31T08:10:50;3.72;;;1.45;;
74620;SDS011;64861;47.546;19.254;2023-01-31T08:13:16;4.00;;;1.70;;
74620;SDS011;64861;47.546;19.254;2023-01-31T08:15:41;3.55;;;1.38;;
74620;SDS011;64861;47.546;19.254;2023-01-31T08:18:06;3.38;;;1.40;;
74620;SDS011;64861;47.546;19.254;2023-01-31T08:20:32;3.53;;;1.60;;
74620;SDS011;64861;47.546;19.254;2023-01-31T08:22:58;3.80;;;1.67;;
74620;SDS011;64861;47.546;19.254;2023-01-31T08:25:24;3.97;;;1.67;;
74620;SDS011;64861;47.546;19.254;2023-01-31T08:27:52;4.57;;;2.08;;
74620;SDS011;64861;47.546;19.254;2023-01-31T08:30:18;3.83;;;1.70;;
74620;SDS011;64861;47.546;19.254;2023-01-31T08:32:44;3.45;;;1.50;;
74620;SDS011;64861;47.546;19.254;2023-01-31T08:35:09;3.78;;;1.58;;
74620;SDS011;64861;47.546;19.254;2023-01-31T08:37:35;4.00;;;1.50;;
74620;SDS011;64861;47.546;19.254;2023-01-31T08:40:00;4.63;;;1.73;;
74620;SDS011;64861;47.546;19.254;2023-01-31T08:42:26;3.55;;;1.65;;
74620;SDS011;64861;47.546;19.254;2023-01-31T08:44:51;4.07;;;1.60;;
74620;SDS011;64861;47.546;19.254;2023-01-31T08:47:17;5.10;;;1.88;;
74620;SDS011;64861;47.546;19.254;2023-01-31T08:49:42;3.40;;;1.65;;
74620;SDS011;64861;47.546;19.254;2023-01-31T08:52:08;4.40;;;1.85;;
74620;SDS011;64861;47.546;19.254;2023-01-31T08:54:34;3.72;;;1.50;;
74620;SDS011;64861;47.546;19.254;2023-01-31T08:56:59;3.35;;;1.70;;
74620;SDS011;64861;47.546;19.254;2023-01-31T08:59:24;4.28;;;1.48;;
74620;SDS011;64861;47.546;19.254;2023-01-31T09:01:50;4.20;;;1.42;;
74620;SDS011;64861;47.546;19.254;2023-01-31T09:04:15;3.97;;;1.58;;
74620;SDS011;64861;47.546;19.254;2023-01-31T09:06:41;4.63;;;1.65;;
74620;SDS011;64861;47.546;19.254;2023-01-31T09:09:06;3.13;;;1.45;;
74620;SDS011;64861;47.546;19.254;2023-01-31T09:11:32;4.32;;;1.50;;
74620;SDS011;64861;47.546;19.254;2023-01-31T09:13:59;3.58;;;1.60;;
74620;SDS011;64861;47.546;19.254;2023-01-31T09:16:25;3.78;;;1.40;;
74620;SDS011;64861;47.546;19.254;2023-01-31T09:18:51;3.92;;;1.48;;
74620;SDS011;64861;47.546;19.254;2023-01-31T09:21:18;3.75;;;1.45;;
74620;SDS011;64861;47.546;19.254;2023-01-31T09:23:45;4.53;;;1.52;;
74620;SDS011;64861;47.546;19.254;2023-01-31T09:26:11;3.35;;;1.40;;
74620;SDS011;64861;47.546;19.254;2023-01-31T09:28:38;3.75;;;1.35;;
74620;SDS011;64861;47.546;19.254;2023-01-31T09:31:07;2.85;;;1.38;;
74620;SDS011;64861;47.546;19.254;2023-01-31T09:33:34;3.47;;;1.40;;
74620;SDS011;64861;47.546;19.254;2023-01-31T09:36:00;3.05;;;1.55;;
74620;SDS011;64861;47.546;19.254;2023-01-31T09:38:28;3.38;;;1.40;;
74620;SDS011;64861;47.546;19.254;2023-01-31T09:40:54;3.45;;;1.50;;
74620;SDS011;64861;47.546;19.254;2023-01-31T09:43:23;3.47;;;1.30;;
74620;SDS011;64861;47.546;19.254;2023-01-31T09:45:53;3.55;;;1.42;;
74620;SDS011;64861;47.546;19.254;2023-01-31T09:48:23;3.17;;;1.38;;
74620;SDS011;64861;47.546;19.254;2023-01-31T09:50:53;4.45;;;1.42;;
74620;SDS011;64861;47.546;19.254;2023-01-31T09:53:24;3.95;;;1.73;;
74620;SDS011;64861;47.546;19.254;2023-01-31T10:01:25;3.33;;;1.30;;
74620;SDS011;64861;47.546;19.254;2023-01-31T10:06:32;4.20;;;1.60;;
74620;SDS011;64861;47.546;19.254;2023-01-31T10:09:11;3.35;;;1.27;;
74620;SDS011;64861;47.546;19.254;2023-01-31T10:11:46;3.42;;;1.40;;
74620;SDS011;64861;47.546;19.254;2023-01-31T10:17:10;3.00;;;1.33;;
74620;SDS011;64861;47.546;19.254;2023-01-31T10:22:18;3.63;;;1.40;;
74620;SDS011;64861;47.546;19.254;2023-01-31T10:24:59;3.38;;;1.35;;
74620;SDS011;64861;47.546;19.254;2023-01-31T10:27:43;2.42;;;1.17;;
74620;SDS011;64861;47.546;19.254;2023-01-31T10:30:20;3.40;;;1.20;;
74620;SDS011;64861;47.546;19.254;2023-01-31T10:32:52;7.40;;;1.60;;
74620;SDS011;64861;47.546;19.254;2023-01-31T10:35:26;2.83;;;1.30;;
74620;SDS011;64861;47.546;19.254;2023-01-31T10:38:01;3.45;;;1.30;;
74620;SDS011;64861;47.546;19.254;2023-01-31T10:40:38;3.67;;;1.35;;
74620;SDS011;64861;47.546;19.254;2023-01-31T10:43:13;3.00;;;1.30;;
74620;SDS011;64861;47.546;19.254;2023-01-31T10:45:43;2.95;;;1.30;;
74620;SDS011;64861;47.546;19.254;2023-01-31T10:48:15;3.33;;;1.30;;
74620;SDS011;64861;47.546;19.254;2023-01-31T10:51:32;3.05;;;1.20;;
74620;SDS011;64861;47.546;19.254;2023-01-31T10:58:46;3.70;;;1.20;;
74620;SDS011;64861;47.546;19.254;2023-01-31T11:01:12;2.80;;;1.23;;
74620;SDS011;64861;47.546;19.254;2023-01-31T11:03:40;2.97;;;1.20;;
74620;SDS011;64861;47.546;19.254;2023-01-31T11:06:16;3.67;;;1.30;;
74620;SDS011;64861;47.546;19.254;2023-01-31T11:08:42;3.50;;;1.20;;
74620;SDS011;64861;47.546;19.254;2023-01-31T11:11:16;3.08;;;1.13;;
74620;SDS011;64861;47.546;19.254;2023-01-31T11:13:59;3.72;;;1.40;;
74620;SDS011;64861;47.546;19.254;2023-01-31T11:16:27;3.20;;;1.20;;
74620;SDS011;64861;47.546;19.254;2023-01-31T11:18:55;2.60;;;1.10;;
74620;SDS011;64861;47.546;19.254;2023-01-31T11:21:23;3.08;;;1.27;;
74620;SDS011;64861;47.546;19.254;2023-01-31T11:23:51;3.50;;;1.40;;
74620;SDS011;64861;47.546;19.254;2023-01-31T11:26:33;3.42;;;1.45;;
74620;SDS011;64861;47.546;19.254;2023-01-31T11:29:06;3.17;;;1.45;;
74620;SDS011;64861;47.546;19.254;2023-01-31T11:31:36;2.40;;;1.10;;
74620;SDS011;64861;47.546;19.254;2023-01-31T11:36:47;2.72;;;1.20;;
74620;SDS011;64861;47.546;19.254;2023-01-31T11:39:30;4.38;;;1.50;;
74620;SDS011;64861;47.546;19.254;2023-01-31T11:42:03;4.05;;;1.50;;
74620;SDS011;64861;47.546;19.254;2023-01-31T11:44:31;2.95;;;1.25;;
74620;SDS011;64861;47.546;19.254;2023-01-31T11:47:05;2.92;;;1.33;;
74620;SDS011;64861;47.546;19.254;2023-01-31T11:49:38;2.88;;;1.20;;
74620;SDS011;64861;47.546;19.254;2023-01-31T11:52:11;2.88;;;1.20;;
74620;SDS011;64861;47.546;19.254;2023-01-31T11:54:39;3.93;;;1.40;;
74620;SDS011;64861;47.546;19.254;2023-01-31T11:57:33;4.65;;;1.30;;
74620;SDS011;64861;47.546;19.254;2023-01-31T11:59:58;3.10;;;1.30;;
74620;SDS011;64861;47.546;19.254;2023-01-31T12:02:36;4.00;;;1.42;;
74620;SDS011;64861;47.546;19.254;2023-01-31T12:05:09;2.72;;;1.20;;
74620;SDS011;64861;47.546;19.254;2023-01-31T12:07:50;3.72;;;1.30;;
74620;SDS011;64861;47.546;19.254;2023-01-31T12:10:31;2.85;;;1.15;;
74620;SDS011;64861;47.546;19.254;2023-01-31T12:13:16;3.65;;;1.30;;
74620;SDS011;64861;47.546;19.254;2023-01-31T12:15:54;2.90;;;1.13;;
74620;SDS011;64861;47.546;19.254;2023-01-31T12:18:28;3.35;;;1.30;;
74620;SDS011;64861;47.546;19.254;2023-01-31T12:21:47;3.50;;;1.20;;
74620;SDS011;64861;47.546;19.254;2023-01-31T12:23:55;2.78;;;1.30;;
74620;SDS011;64861;47.546;19.254;2023-01-31T12:26:38;3.47;;;1.35;;
74620;SDS011;64861;47.546;19.254;2023-01-31T12:32:04;3.60;;;1.27;;
74620;SDS011;64861;47.546;19.254;2023-01-31T12:42:40;5.30;;;1.42;;
74620;SDS011;64861;47.546;19.254;2023-01-31T12:45:34;3.42;;;1.35;;
74620;SDS011;64861;47.546;19.254;2023-01-31T12:53:27;3.20;;;1.20;;
74620;SDS011;64861;47.546;19.254;2023-01-31T12:56:13;3.60;;;1.10;;
74620;SDS011;64861;47.546;19.254;2023-01-31T13:01:45;3.88;;;1.20;;
74620;SDS011;64861;47.546;19.254;2023-01-31T13:06:45;3.78;;;1.20;;
74620;SDS011;64861;47.546;19.254;2023-01-31T13:14:50;3.13;;;1.30;;
74620;SDS011;64861;47.546;19.254;2023-01-31T13:17:30;3.08;;;1.08;;
74620;SDS011;64861;47.546;19.254;2023-01-31T13:19:59;2.72;;;1.10;;
74620;SDS011;64861;47.546;19.254;2023-01-31T13:22:44;3.80;;;1.20;;
74620;SDS011;64861;47.546;19.254;2023-01-31T13:25:23;3.45;;;1.30;;
74620;SDS011;64861;47.546;19.254;2023-01-31T13:30:35;4.05;;;1.20;;
74620;SDS011;64861;47.546;19.254;2023-01-31T13:35:47;3.63;;;1.17;;
74620;SDS011;64861;47.546;19.254;2023-01-31T13:38:42;3.00;;;1.20;;
74620;SDS011;64861;47.546;19.254;2023-01-31T13:41:16;5.13;;;1.48;;
74620;SDS011;64861;47.546;19.254;2023-01-31T13:46:20;2.95;;;1.20;;
74620;SDS011;64861;47.546;19.254;2023-01-31T13:48:54;3.73;;;1.40;;
74620;SDS011;64861;47.546;19.254;2023-01-31T13:51:28;3.50;;;1.00;;
74620;SDS011;64861;47.546;19.254;2023-01-31T13:56:41;2.97;;;1.13;;
74620;SDS011;64861;47.546;19.254;2023-01-31T13:59:07;3.53;;;1.40;;
74620;SDS011;64861;47.546;19.254;2023-01-31T14:01:35;3.75;;;1.15;;
74620;SDS011;64861;47.546;19.254;2023-01-31T14:11:48;3.47;;;1.30;;
74620;SDS011;64861;47.546;19.254;2023-01-31T14:17:01;3.50;;;1.08;;
74620;SDS011;64861;47.546;19.254;2023-01-31T14:22:21;2.75;;;1.20;;
74620;SDS011;64861;47.546;19.254;2023-01-31T14:40:37;2.75;;;1.02;;
74620;SDS011;64861;47.546;19.254;2023-01-31T14:43:18;2.72;;;0.98;;
74620;SDS011;64861;47.546;19.254;2023-01-31T14:57:37;2.47;;;1.10;;
74620;SDS011;64861;47.546;19.254;2023-01-31T15:07:56;3.50;;;1.00;;
74620;SDS011;64861;47.546;19.254;2023-01-31T15:14:04;3.42;;;1.15;;
74620;SDS011;64861;47.546;19.254;2023-01-31T15:16:33;3.22;;;1.10;;
74620;SDS011;64861;47.546;19.254;2023-01-31T15:21:42;3.55;;;1.10;;
74620;SDS011;64861;47.546;19.254;2023-01-31T15:24:16;2.78;;;1.15;;
74620;SDS011;64861;47.546;19.254;2023-01-31T15:26:44;2.50;;;1.20;;
74620;SDS011;64861;47.546;19.254;2023-01-31T15:29:23;3.00;;;1.08;;
74620;SDS011;64861;47.546;19.254;2023-01-31T15:31:57;2.15;;;1.00;;
74620;SDS011;64861;47.546;19.254;2023-01-31T15:34:34;3.80;;;1.20;;
74620;SDS011;64861;47.546;19.254;2023-01-31T15:37:22;3.13;;;1.15;;
74620;SDS011;64861;47.546;19.254;2023-01-31T15:39:57;3.25;;;1.23;;
74620;SDS011;64861;47.546;19.254;2023-01-31T15:42:30;2.50;;;1.00;;
74620;SDS011;64861;47.546;19.254;2023-01-31T15:50:17;3.00;;;1.08;;
74620;SDS011;64861;47.546;19.254;2023-01-31T15:52:44;3.03;;;1.35;;
74620;SDS011;64861;47.546;19.254;2023-01-31T15:55:14;3.50;;;1.20;;
74620;SDS011;64861;47.546;19.254;2023-01-31T15:57:43;4.70;;;1.30;;
74620;SDS011;64861;47.546;19.254;2023-01-31T16:00:24;3.40;;;1.13;;
74620;SDS011;64861;47.546;19.254;2023-01-31T16:02:50;3.13;;;1.15;;
74620;SDS011;64861;47.546;19.254;2023-01-31T16:07:50;3.72;;;1.20;;
74620;SDS011;64861;47.546;19.254;2023-01-31T16:10:16;2.58;;;0.98;;
74620;SDS011;64861;47.546;19.254;2023-01-31T16:12:45;2.88;;;1.08;;
74620;SDS011;64861;47.546;19.254;2023-01-31T16:15:24;3.53;;;1.20;;
74620;SDS011;64861;47.546;19.254;2023-01-31T16:17:53;4.30;;;1.27;;
74620;SDS011;64861;47.546;19.254;2023-01-31T16:20:34;2.63;;;1.05;;
74620;SDS011;64861;47.546;19.254;2023-01-31T16:23:02;3.13;;;1.30;;
74620;SDS011;64861;47.546;19.254;2023-01-31T16:25:28;2.75;;;1.15;;
74620;SDS011;64861;47.546;19.254;2023-01-31T16:27:57;3.15;;;1.13;;
74620;SDS011;64861;47.546;19.254;2023-01-31T16:30:26;3.72;;;1.45;;
74620;SDS011;64861;47.546;19.254;2023-01-31T16:32:52;3.65;;;1.30;;
74620;SDS011;64861;47.546;19.254;2023-01-31T16:35:26;3.45;;;1.38;;
74620;SDS011;64861;47.546;19.254;2023-01-31T16:38:04;4.55;;;1.20;;
74620;SDS011;64861;47.546;19.254;2023-01-31T16:40:44;3.78;;;1.50;;
74620;SDS011;64861;47.546;19.254;2023-01-31T16:43:17;5.10;;;1.75;;
74620;SDS011;64861;47.546;19.254;2023-01-31T16:50:57;4.28;;;1.70;;
74620;SDS011;64861;47.546;19.254;2023-01-31T16:53:31;3.70;;;1.58;;
74620;SDS011;64861;47.546;19.254;2023-01-31T16:58:56;4.05;;;1.40;;
74620;SDS011;64861;47.546;19.254;2023-01-31T17:01:29;3.58;;;1.50;;
74620;SDS011;64861;47.546;19.254;2023-01-31T17:06:49;3.80;;;1.60;;
74620;SDS011;64861;47.546;19.254;2023-01-31T17:09:24;5.07;;;1.88;;
74620;SDS011;64861;47.546;19.254;2023-01-31T17:11:52;4.65;;;1.77;;
74620;SDS011;64861;47.546;19.254;2023-01-31T17:14:18;4.43;;;1.80;;
74620;SDS011;64861;47.546;19.254;2023-01-31T17:16:44;4.72;;;1.83;;
74620;SDS011;64861;47.546;19.254;2023-01-31T17:19:10;4.80;;;1.73;;
74620;SDS011;64861;47.546;19.254;2023-01-31T17:21:38;4.00;;;1.52;;
74620;SDS011;64861;47.546;19.254;2023-01-31T17:24:09;5.20;;;2.10;;
74620;SDS011;64861;47.546;19.254;2023-01-31T17:26:39;4.43;;;1.70;;
74620;SDS011;64861;47.546;19.254;2023-01-31T17:29:04;4.25;;;1.80;;
74620;SDS011;64861;47.546;19.254;2023-01-31T17:31:30;3.90;;;1.67;;
74620;SDS011;64861;47.546;19.254;2023-01-31T17:33:55;5.03;;;1.90;;
74620;SDS011;64861;47.546;19.254;2023-01-31T17:36:21;4.88;;;1.70;;
74620;SDS011;64861;47.546;19.254;2023-01-31T17:38:46;3.60;;;1.52;;
74620;SDS011;64861;47.546;19.254;2023-01-31T17:41:13;4.40;;;1.60;;
74620;SDS011;64861;47.546;19.254;2023-01-31T17:43:40;4.45;;;1.75;;
74620;SDS011;64861;47.546;19.254;2023-01-31T17:46:06;4.10;;;1.70;;